CheckWX is a tool to help pilots better visualize weather data.  It is not intended as a substitute for an official pre-flight weather briefing.

21:50:11 UTC

UWLW TAF
Ulyanovsk East Airport
Ulyanovsk, Russian Federation
TAF UWLW 201945Z 2021/2121 19003MPS 5000 BR BKN015 TEMPO 20122112 24003G08MPS 1000 SNRA BR BKN004

Mar-20@
21:00 UTC

Mar-20 @ 21:00 UTC

Mar-21@
21:00 UTC

Mar-21 @ 21:00 UTC

TAF UWLW 201945Z 2021/2121 19003MPS 5000 BR BKN015
Wind
  • 190° at 6 KTS
Conditions
Mist
Cloud Levels
  • Broken at 1,500' AGL